Time;durP1;ratioP1;P1;durP2;ratioP2;P2;SDS_P1;SDS_P2;PMS_P1;PMS_P2;Temp;Humidity;BMP_temperature;BMP_pressure;BME280_temperature;BME280_humidity;BME280_pressure;Samples;Min_cycle;Max_cycle;Signal;HPM_P1;HPM_P2
2021/08/22 00:00:10;;;;;;;5.30;3.90;;;18.00;99.90;;;;;;5036104;28;20524;-79
2021/08/22 00:02:37;;;;;;;4.63;3.80;;;18.00;99.90;;;;;;5036470;28;20447;-79
2021/08/22 00:05:04;;;;;;;3.77;3.40;;;18.00;99.90;;;;;;5042334;28;20454;-79
2021/08/22 00:07:30;;;;;;;4.60;4.07;;;18.00;99.90;;;;;;5037808;28;20465;-79
2021/08/22 00:09:57;;;;;;;5.00;3.57;;;18.00;99.90;;;;;;5035826;28;20864;-79
2021/08/22 00:12:24;;;;;;;4.43;3.53;;;18.00;99.90;;;;;;5035717;28;20471;-79
2021/08/22 00:14:52;;;;;;;6.20;4.03;;;17.90;99.90;;;;;;5036617;28;20447;-79
2021/08/22 00:17:19;;;;;;;4.40;4.00;;;17.90;99.90;;;;;;5037760;28;20522;-80
2021/08/22 00:19:46;;;;;;;3.67;3.37;;;17.80;99.90;;;;;;5038206;28;20470;-79
2021/08/22 00:22:12;;;;;;;7.37;5.30;;;17.80;99.90;;;;;;5040313;28;20446;-79
2021/08/22 00:24:39;;;;;;;7.67;3.70;;;17.80;99.90;;;;;;5036780;28;20447;-79
2021/08/22 00:27:06;;;;;;;4.77;3.90;;;17.80;99.90;;;;;;5037350;28;20463;-79
2021/08/22 00:29:32;;;;;;;5.23;4.80;;;17.70;99.90;;;;;;5040967;28;20443;-79
2021/08/22 00:32:01;;;;;;;5.40;4.90;;;17.70;99.90;;;;;;5043945;28;20470;-79
2021/08/22 00:34:28;;;;;;;4.13;3.73;;;17.70;99.90;;;;;;5054376;28;20528;-79
2021/08/22 00:36:55;;;;;;;6.30;4.33;;;17.60;99.90;;;;;;5053182;28;20474;-79
2021/08/22 00:39:23;;;;;;;4.13;3.63;;;17.50;99.90;;;;;;5049673;28;20854;-79
2021/08/22 00:41:49;;;;;;;4.37;3.97;;;17.60;99.90;;;;;;5041852;28;20443;-79
2021/08/22 00:44:16;;;;;;;3.60;3.30;;;17.60;99.90;;;;;;5040601;28;20450;-80
2021/08/22 00:46:43;;;;;;;4.37;3.97;;;17.60;99.90;;;;;;5040883;28;20462;-79
2021/08/22 00:49:12;;;;;;;3.73;3.37;;;17.60;99.90;;;;;;5041104;28;20482;-79
2021/08/22 00:51:41;;;;;;;4.33;3.97;;;17.70;99.90;;;;;;5041080;28;20804;-79
2021/08/22 00:54:08;;;;;;;4.30;3.90;;;17.60;99.90;;;;;;5040185;28;20857;-80
2021/08/22 00:56:35;;;;;;;4.60;4.00;;;17.60;99.90;;;;;;5040680;28;20498;-79
2021/08/22 00:59:02;;;;;;;4.63;4.03;;;17.60;99.90;;;;;;5039751;28;20470;-79
2021/08/22 01:01:31;;;;;;;4.60;4.03;;;17.60;99.90;;;;;;5040261;28;20455;-79
2021/08/22 01:04:06;;;;;;;4.20;3.53;;;17.60;99.90;;;;;;5040135;28;20466;-79
2021/08/22 01:06:42;;;;;;;3.87;3.50;;;17.60;99.90;;;;;;5039274;28;20516;-79
2021/08/22 01:09:15;;;;;;;3.97;3.53;;;17.50;99.90;;;;;;5039344;28;20507;-79
2021/08/22 01:11:42;;;;;;;4.00;3.43;;;17.50;99.90;;;;;;5039235;28;20898;-79
2021/08/22 01:14:12;;;;;;;4.17;3.77;;;17.50;99.90;;;;;;5039343;28;20497;-79
2021/08/22 01:16:41;;;;;;;4.27;3.87;;;17.60;99.90;;;;;;5039122;28;20532;-79
2021/08/22 01:19:15;;;;;;;3.90;3.53;;;17.40;99.90;;;;;;5039427;28;20512;-79
2021/08/22 01:21:43;;;;;;;5.00;3.50;;;17.40;99.90;;;;;;5039313;28;20439;-80
2021/08/22 01:24:10;;;;;;;5.97;3.60;;;17.40;99.90;;;;;;5038186;28;20486;-79
2021/08/22 01:26:39;;;;;;;4.97;4.00;;;17.40;99.90;;;;;;5037354;28;21032;-79
2021/08/22 01:29:07;;;;;;;5.73;4.17;;;17.20;99.90;;;;;;5037246;28;20517;-79
2021/08/22 01:31:39;;;;;;;5.60;3.30;;;17.20;99.90;;;;;;5037455;28;20454;-79
2021/08/22 01:34:08;;;;;;;4.60;4.23;;;17.20;99.90;;;;;;5037309;28;20979;-79
2021/08/22 01:36:35;;;;;;;4.40;4.10;;;17.30;99.90;;;;;;5037355;28;20530;-79
2021/08/22 01:39:02;;;;;;;6.67;4.30;;;17.30;99.90;;;;;;5037808;28;20954;-79
2021/08/22 01:41:29;;;;;;;5.60;3.90;;;17.20;99.90;;;;;;5038329;28;20479;-79
2021/08/22 01:43:57;;;;;;;7.90;4.27;;;17.30;99.90;;;;;;5039835;28;20451;-79
2021/08/22 01:46:28;;;;;;;4.70;3.93;;;17.30;99.90;;;;;;5038736;28;20494;-79
2021/08/22 01:48:55;;;;;;;4.33;4.03;;;17.20;99.90;;;;;;5038988;28;20435;-79
2021/08/22 01:51:26;;;;;;;5.30;4.37;;;17.10;99.90;;;;;;5038200;28;20573;-79
2021/08/22 01:53:52;;;;;;;3.83;3.53;;;17.00;99.90;;;;;;5037966;28;20435;-79
2021/08/22 01:56:19;;;;;;;4.30;3.90;;;16.90;99.90;;;;;;5037952;28;20529;-79
2021/08/22 01:58:46;;;;;;;4.33;3.97;;;17.00;99.90;;;;;;5041368;28;20942;-79
2021/08/22 02:01:14;;;;;;;4.80;4.40;;;17.00;99.90;;;;;;5044376;28;20455;-79
2021/08/22 02:03:46;;;;;;;4.90;4.20;;;17.40;99.90;;;;;;5042156;28;20485;-79
2021/08/22 02:06:18;;;;;;;3.97;3.57;;;17.10;99.90;;;;;;5041896;28;20521;-79
2021/08/22 02:08:49;;;;;;;4.27;3.87;;;17.20;99.90;;;;;;5041670;28;20443;-79
2021/08/22 02:11:21;;;;;;;4.63;3.53;;;17.20;99.90;;;;;;5041950;28;20459;-79
2021/08/22 02:13:49;;;;;;;4.20;3.80;;;17.20;99.90;;;;;;5041740;28;20894;-79
2021/08/22 02:16:22;;;;;;;4.60;4.20;;;17.10;99.90;;;;;;5040511;28;20499;-80
2021/08/22 02:18:51;;;;;;;5.30;3.27;;;17.10;99.90;;;;;;5042006;28;20431;-79
2021/08/22 02:21:18;;;;;;;4.50;4.10;;;17.10;99.90;;;;;;5040631;28;20550;-79
2021/08/22 02:23:46;;;;;;;4.40;3.97;;;17.10;99.90;;;;;;5039993;28;20965;-79
2021/08/22 02:26:13;;;;;;;4.10;3.70;;;17.10;99.90;;;;;;5038988;28;20471;-79
2021/08/22 02:28:39;;;;;;;6.03;3.90;;;17.10;99.90;;;;;;5039147;28;20482;-79
2021/08/22 02:31:06;;;;;;;4.90;3.83;;;17.10;99.90;;;;;;5042038;28;20993;-79
2021/08/22 02:33:32;;;;;;;4.17;3.77;;;17.10;99.90;;;;;;5043842;28;20486;-79
2021/08/22 02:35:59;;;;;;;4.50;4.10;;;17.00;99.90;;;;;;5039304;28;20471;-79
2021/08/22 02:38:26;;;;;;;4.20;3.50;;;17.10;99.90;;;;;;5039186;28;20851;-79
2021/08/22 02:40:53;;;;;;;4.60;4.20;;;17.20;99.90;;;;;;5037305;28;20483;-79
2021/08/22 02:43:20;;;;;;;4.60;4.20;;;17.20;99.90;;;;;;5037757;28;20498;-79
2021/08/22 02:45:46;;;;;;;5.20;4.60;;;17.10;99.90;;;;;;5043180;28;20470;-79
2021/08/22 02:48:13;;;;;;;3.63;3.33;;;17.10;99.90;;;;;;5044710;28;20875;-79
2021/08/22 02:50:41;;;;;;;4.37;3.90;;;17.10;99.90;;;;;;5044359;28;20451;-78
2021/08/22 02:53:09;;;;;;;9.97;4.40;;;17.20;99.90;;;;;;5045704;28;21129;-79
2021/08/22 02:55:36;;;;;;;5.63;3.50;;;17.20;99.90;;;;;;5041628;28;20455;-79
2021/08/22 02:58:04;;;;;;;4.10;3.80;;;17.10;99.90;;;;;;5037158;28;20467;-79
2021/08/22 03:00:30;;;;;;;4.57;3.60;;;17.20;99.90;;;;;;5037880;28;20471;-79
2021/08/22 03:02:57;;;;;;;3.80;3.40;;;17.20;99.90;;;;;;5037029;28;20888;-79
2021/08/22 03:05:24;;;;;;;4.70;4.07;;;17.20;99.90;;;;;;5036749;28;20484;-79
2021/08/22 03:07:50;;;;;;;4.30;3.90;;;17.20;99.90;;;;;;5036365;28;20486;-79
2021/08/22 03:10:17;;;;;;;4.30;3.73;;;17.20;99.90;;;;;;5036559;28;20554;-79
2021/08/22 03:12:43;;;;;;;5.87;4.33;;;17.20;99.90;;;;;;5036046;28;20497;-80
2021/08/22 03:15:12;;;;;;;4.27;3.57;;;17.20;99.90;;;;;;5036587;28;20486;-79
2021/08/22 03:17:38;;;;;;;4.10;3.70;;;17.20;99.90;;;;;;5035930;28;20525;-79
2021/08/22 03:20:06;;;;;;;4.67;4.27;;;17.10;99.90;;;;;;5035901;28;20938;-79
2021/08/22 03:22:33;;;;;;;4.13;3.50;;;17.10;99.90;;;;;;5036628;28;20451;-80
2021/08/22 03:25:00;;;;;;;3.97;3.57;;;17.10;99.90;;;;;;5036701;28;20490;-80
2021/08/22 03:27:27;;;;;;;4.20;3.80;;;17.10;99.90;;;;;;5036291;28;20497;-79
2021/08/22 03:29:54;;;;;;;3.87;3.50;;;17.10;99.90;;;;;;5036643;28;20482;-80
2021/08/22 03:32:21;;;;;;;7.70;4.20;;;17.10;99.90;;;;;;5036921;28;20861;-78
2021/08/22 03:34:48;;;;;;;4.40;3.87;;;17.00;99.90;;;;;;5036757;28;20478;-78
2021/08/22 03:37:15;;;;;;;3.70;3.40;;;17.00;99.90;;;;;;5035798;28;20902;-79
2021/08/22 03:39:41;;;;;;;4.10;3.70;;;16.90;99.90;;;;;;5035793;28;20497;-79
2021/08/22 03:42:08;;;;;;;5.87;3.50;;;17.00;99.90;;;;;;5035042;28;20475;-79
2021/08/22 03:44:34;;;;;;;3.83;3.53;;;17.00;99.90;;;;;;5034880;28;20601;-79
2021/08/22 03:47:01;;;;;;;4.20;3.80;;;16.90;99.90;;;;;;5034642;28;20524;-79
2021/08/22 03:49:29;;;;;;;7.90;4.10;;;16.90;99.90;;;;;;5034490;28;20585;-78
2021/08/22 03:51:55;;;;;;;4.97;4.00;;;16.90;99.90;;;;;;5034533;28;20447;-79
2021/08/22 03:54:22;;;;;;;3.80;3.50;;;16.90;99.90;;;;;;5034699;28;20451;-79
2021/08/22 03:57:23;;;;;;;4.57;4.17;;;16.90;99.90;;;;;;5042637;22;20503;-83
2021/08/22 04:13:08;;;;;;;4.73;4.33;;;16.70;99.90;;;;;;4935168;29;20455;-83
2021/08/22 04:26:55;;;;;;;;;;;;;;;;;;;;;
2021/08/22 04:30:00;;;;;;;5.30;3.70;;;16.70;99.90;;;;;;4843264;29;20531;-84
2021/08/22 05:08:16;;;;;;;4.60;4.07;;;16.90;99.90;;;;;;4810526;29;21069;-82
2021/08/22 05:18:56;;;;;;;3.30;3.00;;;16.80;99.90;;;;;;5017122;28;20503;-81
2021/08/22 05:21:39;;;;;;;;;;;;;;;;;;;;;
2021/08/22 05:27:26;;;;;;;3.13;2.93;;;18.70;99.90;;;;;;5040043;28;20431;-82
2021/08/22 05:30:08;;;;;;;3.50;3.20;;;16.90;99.90;;;;;;5044695;28;20692;-81
2021/08/22 05:32:49;;;;;;;3.60;3.30;;;17.10;99.90;;;;;;5055543;28;20451;-81
2021/08/22 05:44:30;;;;;;;7.93;3.80;;;17.00;99.90;;;;;;5011912;28;20451;-82
2021/08/22 05:47:08;;;;;;;5.00;2.87;;;17.10;99.90;;;;;;5042844;28;20424;-82
2021/08/22 05:50:18;;;;;;;3.13;2.93;;;17.40;99.90;;;;;;5049815;28;20520;-81
2021/08/22 05:52:52;;;;;;;6.60;3.07;;;17.40;99.90;;;;;;5044987;28;20462;-82
2021/08/22 05:55:20;;;;;;;3.03;2.70;;;;;;;;;;5040525;28;20481;-83
2021/08/22 05:58:21;;;;;;;5.97;4.00;;;17.40;99.90;;;;;;5041701;28;20475;-82
2021/08/22 06:03:52;;;;;;;5.30;4.63;;;17.50;99.90;;;;;;5040906;28;20455;-82
2021/08/22 06:06:53;;;;;;;3.60;3.30;;;17.50;99.90;;;;;;5043607;28;20930;-83
2021/08/22 06:10:06;;;;;;;4.43;3.43;;;17.60;99.90;;;;;;5041893;28;20810;-81
2021/08/22 06:12:41;;;;;;;3.07;2.83;;;;;;;;;;5012977;28;20476;-82
2021/08/22 06:15:20;;;;;;;3.13;2.93;;;17.60;99.90;;;;;;4998742;28;20448;-83
2021/08/22 06:18:05;;;;;;;4.43;2.77;;;18.00;99.90;;;;;;5025388;28;20481;-82
2021/08/22 06:20:46;;;;;;;2.90;2.70;;;;;;;;;;5038538;28;20538;-82
2021/08/22 06:26:47;;;;;;;3.00;2.80;;;17.90;99.90;;;;;;5037860;28;20466;-82
2021/08/22 06:29:54;;;;;;;3.30;3.00;;;17.90;99.90;;;;;;5048859;28;20462;-82
2021/08/22 06:36:38;;;;;;;3.27;2.97;;;16.30;99.90;;;;;;5038292;28;20442;-82
2021/08/22 06:39:38;;;;;;;;;;;;;;;;;;;;;
2021/08/22 06:57:45;;;;;;;4.17;3.10;;;18.30;99.90;;;;;;4770377;30;20464;-82
2021/08/22 07:01:11;;;;;;;3.33;3.07;;;18.30;99.90;;;;;;4821668;29;20839;-83
2021/08/22 07:10:38;;;;;;;12.13;6.80;;;18.40;99.90;;;;;;4939467;29;20455;-82
2021/08/22 07:16:29;;;;;;;3.63;3.33;;;18.50;99.90;;;;;;4983376;28;20873;-82
2021/08/22 07:19:13;;;;;;;4.83;3.30;;;18.60;99.90;;;;;;4998261;28;20626;-82
2021/08/22 07:21:45;;;;;;;3.07;2.87;;;18.60;99.90;;;;;;4996408;28;20472;-82
2021/08/22 07:24:37;;;;;;;24.43;16.43;;;18.30;99.90;;;;;;4996716;28;20453;-83
2021/08/22 07:27:57;;;;;;;4.13;3.83;;;19.10;99.90;;;;;;4994106;28;20479;-82
2021/08/22 07:33:09;;;;;;;4.37;3.40;;;18.80;99.90;;;;;;5054432;22;20236;-83
2021/08/22 07:38:57;;;;;;;3.60;3.40;;;;;;;;;;5039630;28;20475;-83
2021/08/22 07:41:42;;;;;;;4.50;2.60;;;19.10;99.90;;;;;;5053812;28;20516;-83
2021/08/22 08:53:36;;;;;;;4.10;3.40;;;20.20;99.90;;;;;;4815659;29;20962;-84
2021/08/22 08:56:26;;;;;;;9.30;8.40;;;20.20;99.90;;;;;;5044217;22;20507;-83
2021/08/22 08:59:34;;;;;;;7.60;5.90;;;20.10;99.90;;;;;;5043857;28;20486;-82
2021/08/22 09:08:39;;;;;;;5.47;3.87;;;20.80;99.90;;;;;;5072735;28;20437;-82
2021/08/22 09:22:16;;;;;;;4.60;4.17;;;21.20;99.90;;;;;;5009576;28;20501;-82
2021/08/22 09:52:11;;;;;;;4.90;4.40;;;21.30;99.90;;;;;;5183596;22;20494;-82
2021/08/22 09:55:23;;;;;;;9.80;4.90;;;20.90;99.90;;;;;;5057065;22;20495;-82
2021/08/22 09:58:40;;;;;;;5.30;4.70;;;21.60;99.90;;;;;;5021272;28;20432;-82
2021/08/22 10:01:54;;;;;;;4.40;4.00;;;21.20;99.90;;;;;;4961654;28;20439;-82
2021/08/22 10:55:33;;;;;;;43.43;34.00;;;20.80;99.90;;;;;;5131960;22;20514;-82
2021/08/22 10:58:10;;;;;;;11.40;10.27;;;;;;;;;;5040479;28;20451;-82
2021/08/22 11:00:47;;;;;;;12.67;9.90;;;20.80;99.90;;;;;;5038011;28;20454;-82
2021/08/22 11:04:06;;;;;;;7.20;6.47;;;20.80;99.90;;;;;;5051814;28;20468;-81
2021/08/22 11:10:14;;;;;;;6.97;6.13;;;20.50;99.90;;;;;;5041664;28;20453;-81
2021/08/22 11:15:56;;;;;;;11.67;8.03;;;;;;;;;;5061245;28;20493;-82
2021/08/22 11:18:52;;;;;;;16.40;8.97;;;19.20;99.90;;;;;;5059523;28;20560;-82
2021/08/22 11:21:55;;;;;;;;;;;;;;;;;;;;;
2021/08/22 11:27:48;;;;;;;11.17;10.00;;;17.80;99.90;;;;;;5071260;28;20517;-81
2021/08/22 11:30:36;;;;;;;25.47;16.23;;;18.00;99.90;;;;;;5061940;28;20441;-81
2021/08/22 11:35:50;;;;;;;14.00;12.60;;;17.70;99.90;;;;;;5083498;22;20594;-81
2021/08/22 11:38:33;;;;;;;11.67;10.47;;;17.70;99.90;;;;;;5024865;28;20451;-81
2021/08/22 11:41:30;;;;;;;16.77;11.73;;;17.50;99.90;;;;;;5021403;28;20451;-82
2021/08/22 11:44:29;;;;;;;17.80;14.60;;;17.80;99.90;;;;;;5037223;28;20470;-82
2021/08/22 11:50:07;;;;;;;14.10;11.53;;;17.80;99.90;;;;;;5068458;22;20490;-85
2021/08/22 12:47:55;;;;;;;14.57;13.07;;;17.50;99.90;;;;;;5063282;22;20497;-82
2021/08/22 12:51:03;;;;;;;14.93;13.43;;;17.50;99.90;;;;;;5040935;28;20438;-82
2021/08/22 12:57:09;;;;;;;17.63;14.47;;;17.60;99.90;;;;;;5056798;28;20474;-83
2021/08/22 13:06:25;;;;;;;;;;;;;;;;;;;;;
2021/08/22 13:09:08;;;;;;;18.07;16.37;;;17.60;99.90;;;;;;5061219;28;20809;-82
2021/08/22 13:18:00;;;;;;;24.07;21.53;;;17.70;99.90;;;;;;4973372;28;20474;-80
2021/08/22 14:08:19;;;;;;;13.80;12.50;;;18.40;99.90;;;;;;5009821;28;20424;-84
2021/08/22 14:23:59;;;;;;;12.27;10.90;;;18.60;99.90;;;;;;5052835;22;20500;-82
2021/08/22 14:29:39;;;;;;;11.97;10.77;;;18.60;99.90;;;;;;5000302;23;20560;-82
2021/08/22 14:36:47;;;;;;;;;;;;;;;;;;;;;
2021/08/22 15:06:24;;;;;;;;;;;;;;;;;;;;;
2021/08/22 15:08:59;;;;;;;17.10;13.10;;;18.90;99.90;;;;;;4993249;28;20453;-83
2021/08/22 15:18:12;;;;;;;9.97;9.07;;;18.80;99.90;;;;;;4930978;29;20427;-84
2021/08/22 15:21:12;;;;;;;10.37;9.47;;;18.80;99.90;;;;;;4978169;29;20502;-84
2021/08/22 15:23:58;;;;;;;11.27;10.17;;;18.80;99.90;;;;;;4976546;28;20450;-84
2021/08/22 15:33:16;;;;;;;12.37;11.10;;;18.90;99.90;;;;;;4966972;29;20435;-84
2021/08/22 15:35:53;;;;;;;9.20;8.00;;;18.80;99.90;;;;;;4972599;28;20461;-84
2021/08/22 15:39:18;;;;;;;10.00;9.10;;;17.50;99.90;;;;;;4971213;29;20450;-85
2021/08/22 15:45:57;;;;;;;9.90;8.90;;;18.90;99.90;;;;;;4914697;29;20491;-83
2021/08/22 16:22:38;;;;;;;8.63;7.73;;;18.90;99.90;;;;;;5003061;22;20916;-83
2021/08/22 16:36:23;;;;;;;8.33;7.60;;;18.80;99.90;;;;;;4903951;23;20553;-85
2021/08/22 16:56:04;;;;;;;7.60;6.87;;;;;;;;;;4986946;28;20496;-83
2021/08/22 16:59:03;;;;;;;;;;;;;;;;;;;;;
2021/08/22 17:01:39;;;;;;;9.40;8.40;;;;;;;;;;4999898;22;20585;-81
2021/08/22 17:04:13;;;;;;;8.60;7.80;;;18.70;99.90;;;;;;4984505;28;20430;-81
2021/08/22 17:07:23;;;;;;;10.90;8.33;;;18.70;99.90;;;;;;4980917;28;20752;-81
2021/08/22 17:15:52;;;;;;;9.33;8.13;;;18.60;99.90;;;;;;4935718;28;20461;-81
2021/08/22 17:24:09;;;;;;;10.17;7.83;;;18.60;99.90;;;;;;4159974;26;20487;-81
2021/08/22 17:27:28;;;;;;;11.00;8.10;;;18.60;99.90;;;;;;5020224;28;20805;-81
2021/08/22 17:30:36;;;;;;;8.47;7.73;;;18.60;99.90;;;;;;5017100;28;20809;-81
2021/08/22 17:45:49;;;;;;;9.23;8.27;;;18.60;99.90;;;;;;4899941;29;20465;-83
2021/08/22 17:48:21;;;;;;;8.90;8.20;;;18.50;99.90;;;;;;4905481;29;20525;-83
2021/08/22 17:51:20;;;;;;;8.47;7.67;;;18.50;99.90;;;;;;4975012;29;20517;-81
2021/08/22 17:54:15;;;;;;;8.87;8.07;;;18.50;99.90;;;;;;4975870;29;20455;-81
2021/08/22 17:56:49;;;;;;;11.90;8.53;;;;;;;;;;4976284;28;20454;-82
2021/08/22 17:59:30;;;;;;;10.67;7.80;;;18.40;99.90;;;;;;4968031;28;20435;-83
2021/08/22 18:02:15;;;;;;;7.87;7.03;;;18.30;99.90;;;;;;4969482;29;20449;-83
2021/08/22 18:04:43;;;;;;;9.57;8.47;;;;;;;;;;4973940;29;20431;-82
2021/08/22 18:07:36;;;;;;;9.57;8.20;;;18.40;99.90;;;;;;4974824;28;20534;-83
2021/08/22 18:10:17;;;;;;;11.03;8.80;;;18.40;99.90;;;;;;4968120;29;20427;-84
2021/08/22 18:12:52;;;;;;;11.47;8.73;;;18.40;99.90;;;;;;4966811;29;20434;-84
2021/08/22 18:15:39;;;;;;;10.37;9.27;;;18.40;99.90;;;;;;4966159;29;20517;-84
2021/08/22 18:18:45;;;;;;;13.50;9.30;;;18.40;99.90;;;;;;4965820;28;20513;-84
2021/08/22 18:21:35;;;;;;;8.83;7.93;;;18.40;99.90;;;;;;4944562;29;20573;-84
2021/08/22 18:24:16;;;;;;;9.93;8.93;;;18.40;99.90;;;;;;4963517;29;20531;-84
2021/08/22 18:26:46;;;;;;;10.43;8.43;;;18.30;99.90;;;;;;4963162;28;20411;-84
2021/08/22 18:29:13;;;;;;;13.33;9.90;;;;;;;;;;4962807;29;20489;-84
2021/08/22 18:31:47;;;;;;;11.40;9.17;;;18.70;99.90;;;;;;4962314;29;20438;-85
2021/08/22 18:34:32;;;;;;;11.20;10.00;;;18.30;99.90;;;;;;4961544;29;20435;-83
2021/08/22 18:37:18;;;;;;;9.37;7.87;;;18.50;99.90;;;;;;4960159;28;20538;-84
2021/08/22 18:39:56;;;;;;;10.50;9.40;;;18.30;99.90;;;;;;4961997;29;20499;-85
2021/08/22 18:42:32;;;;;;;9.93;8.93;;;;;;;;;;4967272;29;20454;-82
2021/08/22 18:45:07;;;;;;;10.57;9.57;;;;;;;;;;4962072;29;20497;-84
2021/08/22 18:47:39;;;;;;;10.60;9.50;;;18.30;99.90;;;;;;4963402;28;20985;-83
2021/08/22 18:50:13;;;;;;;9.83;8.90;;;16.60;99.90;;;;;;4962546;29;20469;-83
2021/08/22 18:52:53;;;;;;;10.97;9.57;;;18.20;99.90;;;;;;4967021;29;20439;-84
2021/08/22 18:55:43;;;;;;;10.43;9.43;;;18.10;99.90;;;;;;4963177;29;20925;-83
2021/08/22 18:58:10;;;;;;;10.80;9.70;;;;;;;;;;4963782;28;20486;-83
2021/08/22 19:00:40;;;;;;;8.90;8.10;;;18.10;99.90;;;;;;4963465;29;20486;-83
2021/08/22 19:03:07;;;;;;;8.77;7.87;;;;;;;;;;4964215;29;20482;-83
2021/08/22 19:06:02;;;;;;;9.27;8.37;;;18.00;99.90;;;;;;4963049;29;20486;-83
2021/08/22 19:08:29;;;;;;;12.50;8.57;;;;;;;;;;4962931;28;20542;-83
2021/08/22 19:11:15;;;;;;;8.33;7.57;;;18.00;99.90;;;;;;4962912;29;20447;-81
2021/08/22 19:13:42;;;;;;;10.67;9.57;;;17.90;99.90;;;;;;4964443;29;20465;-82
2021/08/22 19:16:09;;;;;;;9.50;8.57;;;;;;;;;;4973733;29;20454;-83
2021/08/22 19:18:36;;;;;;;10.77;9.83;;;;;;;;;;4976422;28;21008;-83
2021/08/22 19:21:08;;;;;;;10.93;9.83;;;17.90;99.90;;;;;;4973892;29;20482;-84
2021/08/22 19:23:37;;;;;;;10.50;9.40;;;17.90;99.90;;;;;;4968523;29;20437;-84
2021/08/22 19:26:05;;;;;;;11.83;10.63;;;;;;;;;;4966011;29;20451;-83
2021/08/22 19:28:33;;;;;;;11.20;10.10;;;17.90;99.90;;;;;;4963715;28;20479;-83
2021/08/22 19:30:59;;;;;;;9.77;8.73;;;17.80;99.90;;;;;;4962768;29;20447;-82
2021/08/22 19:33:31;;;;;;;10.87;9.17;;;17.90;99.90;;;;;;4962876;28;20509;-83
2021/08/22 19:36:00;;;;;;;12.23;10.93;;;18.00;99.90;;;;;;4962853;29;20442;-83
2021/08/22 19:38:27;;;;;;;12.27;11.00;;;18.00;99.90;;;;;;4962503;28;20482;-83
2021/08/22 19:40:53;;;;;;;10.13;9.13;;;18.10;99.90;;;;;;4962139;29;20519;-83
2021/08/22 19:43:20;;;;;;;15.53;11.00;;;18.10;99.90;;;;;;4962432;29;20949;-82
2021/08/22 19:45:48;;;;;;;12.13;9.53;;;18.10;99.90;;;;;;4962737;29;20455;-83
2021/08/22 19:48:15;;;;;;;9.60;8.67;;;18.10;99.90;;;;;;4961966;28;20903;-84
2021/08/22 19:50:41;;;;;;;10.33;9.33;;;18.00;99.90;;;;;;4961492;29;20454;-84
2021/08/22 19:53:08;;;;;;;9.83;8.83;;;18.00;99.90;;;;;;4962566;29;20454;-86
2021/08/22 19:55:35;;;;;;;14.03;10.33;;;18.10;99.90;;;;;;4963207;29;20514;-84
2021/08/22 19:58:04;;;;;;;11.90;8.87;;;18.10;99.90;;;;;;4964054;28;20481;-84
2021/08/22 20:00:31;;;;;;;9.87;8.60;;;18.20;99.90;;;;;;4963642;29;20549;-84
2021/08/22 20:03:00;;;;;;;10.80;9.80;;;18.10;99.90;;;;;;4963319;29;20826;-84
2021/08/22 20:05:27;;;;;;;10.47;9.57;;;18.40;99.90;;;;;;4961493;29;20514;-84
2021/08/22 20:07:55;;;;;;;11.67;9.70;;;18.00;99.90;;;;;;4964425;28;20492;-84
2021/08/22 20:10:22;;;;;;;13.20;9.57;;;18.20;99.90;;;;;;4962111;29;20446;-84
2021/08/22 20:12:48;;;;;;;9.47;8.57;;;18.00;99.90;;;;;;4962038;29;20447;-84
2021/08/22 20:15:16;;;;;;;10.80;8.87;;;18.00;99.90;;;;;;4962484;29;20455;-84
2021/08/22 20:17:44;;;;;;;10.73;9.73;;;17.90;99.90;;;;;;4963944;28;20838;-84
2021/08/22 20:20:14;;;;;;;9.67;8.77;;;18.00;99.90;;;;;;4961113;29;20474;-84
2021/08/22 20:22:42;;;;;;;9.27;8.27;;;18.00;99.90;;;;;;4961460;29;20435;-84
2021/08/22 20:25:10;;;;;;;9.83;8.93;;;17.80;99.90;;;;;;4961916;29;20546;-84
2021/08/22 20:27:53;;;;;;;9.97;8.97;;;17.90;99.90;;;;;;4975508;22;20544;-84
2021/08/22 20:30:28;;;;;;;10.47;9.40;;;17.90;99.90;;;;;;4974548;28;20508;-84
2021/08/22 20:32:59;;;;;;;10.37;9.07;;;17.90;99.90;;;;;;4979788;28;20433;-83
2021/08/22 20:35:34;;;;;;;9.80;8.80;;;17.80;99.90;;;;;;4980197;28;20961;-84
2021/08/22 20:38:05;;;;;;;10.10;9.10;;;18.50;99.90;;;;;;4979845;28;20464;-83
2021/08/22 20:43:19;;;;;;;11.80;10.10;;;17.80;99.90;;;;;;4979398;28;20471;-82
2021/08/22 20:48:55;;;;;;;14.00;12.33;;;17.80;99.90;;;;;;4978491;28;20590;-82
2021/08/22 20:51:39;;;;;;;10.60;9.50;;;17.90;99.90;;;;;;4984567;28;20470;-82
2021/08/22 20:54:22;;;;;;;10.57;9.57;;;17.90;99.90;;;;;;4983365;28;20441;-82
2021/08/22 20:56:52;;;;;;;12.30;10.80;;;17.80;99.90;;;;;;4997484;28;20461;-82
2021/08/22 20:59:24;;;;;;;11.37;10.20;;;;;;;;;;4994741;28;20441;-82
2021/08/22 21:02:11;;;;;;;12.57;10.00;;;17.90;99.90;;;;;;4988616;28;20481;-82
2021/08/22 21:04:45;;;;;;;11.60;10.03;;;17.80;99.90;;;;;;4982751;28;20448;-82
2021/08/22 21:07:18;;;;;;;12.03;10.80;;;17.80;99.90;;;;;;4984859;28;20517;-82
2021/08/22 21:09:59;;;;;;;12.53;11.33;;;17.80;99.90;;;;;;4987569;28;20430;-82
2021/08/22 21:12:47;;;;;;;12.00;10.07;;;18.10;99.90;;;;;;4990006;28;20465;-81
2021/08/22 21:15:26;;;;;;;11.93;10.83;;;17.50;99.90;;;;;;4992711;28;20437;-82
2021/08/22 21:18:03;;;;;;;10.83;9.83;;;18.00;99.90;;;;;;4988455;28;20516;-80
2021/08/22 21:23:35;;;;;;;12.90;10.43;;;17.80;99.90;;;;;;3126537;26;20536;-82
2021/08/22 21:26:13;;;;;;;13.37;10.50;;;18.20;99.90;;;;;;4981700;28;20834;-82
2021/08/22 21:29:40;;;;;;;;;;;;;;;;;;;;;
2021/08/22 21:36:19;;;;;;;18.53;11.83;;;17.90;99.90;;;;;;4960976;28;20407;-80
2021/08/22 21:41:55;;;;;;;12.43;10.97;;;18.00;99.90;;;;;;4985156;28;20589;-81
2021/08/22 21:44:32;;;;;;;11.17;10.07;;;16.50;99.90;;;;;;4983857;28;20464;-82
2021/08/22 21:46:59;;;;;;;12.87;11.37;;;;;;;;;;4983379;28;20460;-82
2021/08/22 21:49:37;;;;;;;12.37;11.13;;;18.10;99.90;;;;;;4981659;28;20453;-82
2021/08/22 21:52:22;;;;;;;10.07;9.20;;;17.80;99.90;;;;;;4980013;28;20982;-82
2021/08/22 21:55:03;;;;;;;;;;;;;;;;;;;;;
2021/08/22 22:06:53;;;;;;;13.83;12.33;;;17.60;99.90;;;;;;4979700;28;20834;-82
2021/08/22 22:09:24;;;;;;;15.47;13.97;;;17.60;99.90;;;;;;4903171;29;20496;-82
2021/08/22 22:15:14;;;;;;;16.00;14.30;;;17.80;99.90;;;;;;4940880;29;20497;-83
2021/08/22 22:17:55;;;;;;;17.53;15.70;;;17.50;99.90;;;;;;4980523;28;20452;-82
2021/08/22 22:20:44;;;;;;;;;;;;;;;;;;;;;
2021/08/22 22:23:35;;;;;;;16.97;15.10;;;17.00;99.90;;;;;;4981826;28;20456;-82
2021/08/22 22:31:58;;;;;;;28.00;18.20;;;17.50;99.90;;;;;;4978428;28;20470;-82
2021/08/22 22:34:26;;;;;;;40.57;18.00;;;17.30;99.90;;;;;;4979145;28;20453;-80
2021/08/22 22:36:53;;;;;;;25.77;17.63;;;19.80;99.90;;;;;;4977741;28;20446;-80
2021/08/22 22:39:19;;;;;;;25.10;17.20;;;17.20;99.90;;;;;;4977234;28;20478;-79
2021/08/22 22:41:46;;;;;;;24.07;17.20;;;17.10;99.90;;;;;;4977094;28;20525;-79
2021/08/22 22:44:13;;;;;;;34.33;20.60;;;17.10;99.90;;;;;;4980257;28;20561;-82
2021/08/22 22:46:39;;;;;;;30.60;22.60;;;17.10;99.90;;;;;;4978569;28;20442;-79
2021/08/22 22:49:06;;;;;;;33.47;23.53;;;17.00;99.90;;;;;;4981461;28;20481;-80
2021/08/22 22:51:35;;;;;;;35.83;21.67;;;17.10;99.90;;;;;;4989016;28;20496;-79
2021/08/22 22:54:01;;;;;;;29.50;22.47;;;17.10;99.90;;;;;;4991184;28;20446;-80
2021/08/22 22:56:28;;;;;;;29.80;21.20;;;17.10;99.90;;;;;;4992713;28;20450;-80
2021/08/22 22:58:55;;;;;;;21.00;18.67;;;17.00;99.90;;;;;;4991748;28;20449;-80
2021/08/22 23:01:23;;;;;;;25.37;19.80;;;17.00;99.90;;;;;;4989676;28;20494;-79
2021/08/22 23:03:49;;;;;;;30.83;20.93;;;17.00;99.90;;;;;;4990725;28;20761;-79
2021/08/22 23:06:16;;;;;;;25.63;21.43;;;17.00;99.90;;;;;;4988635;28;20454;-79
2021/08/22 23:08:44;;;;;;;27.90;21.47;;;17.00;99.90;;;;;;4983072;28;20847;-79
2021/08/22 23:11:10;;;;;;;30.40;21.57;;;17.00;99.90;;;;;;4983755;28;20477;-79
2021/08/22 23:13:37;;;;;;;27.70;21.03;;;17.00;99.90;;;;;;4981505;28;20450;-79
2021/08/22 23:16:04;;;;;;;26.10;20.17;;;17.00;99.90;;;;;;4980210;28;20488;-79
2021/08/22 23:18:30;;;;;;;30.00;21.47;;;16.90;99.90;;;;;;4980315;28;20967;-79
2021/08/22 23:20:58;;;;;;;33.33;21.63;;;17.00;99.90;;;;;;4983112;28;20478;-79
2021/08/22 23:23:27;;;;;;;29.73;22.87;;;16.90;99.90;;;;;;4993970;28;20457;-79
2021/08/22 23:25:55;;;;;;;28.70;20.80;;;16.90;99.90;;;;;;4980220;28;20552;-79
2021/08/22 23:28:22;;;;;;;26.83;21.00;;;16.90;99.90;;;;;;4977457;28;20457;-79
2021/08/22 23:30:48;;;;;;;24.67;19.40;;;17.00;99.90;;;;;;4977066;28;20497;-79
2021/08/22 23:33:15;;;;;;;25.77;19.43;;;17.00;99.90;;;;;;4976482;28;20871;-79
2021/08/22 23:35:42;;;;;;;25.53;20.40;;;17.00;99.90;;;;;;4976103;28;20516;-79
2021/08/22 23:38:08;;;;;;;24.37;20.97;;;17.00;99.90;;;;;;4976136;28;20519;-79
2021/08/22 23:40:35;;;;;;;26.27;21.57;;;17.00;99.90;;;;;;4976536;28;20536;-79
2021/08/22 23:43:03;;;;;;;30.07;21.03;;;17.00;99.90;;;;;;4994923;28;20485;-82
2021/08/22 23:45:29;;;;;;;27.53;20.50;;;17.00;99.90;;;;;;4979705;28;20477;-79
2021/08/22 23:47:56;;;;;;;35.17;23.90;;;17.00;99.90;;;;;;4977654;28;20446;-80
2021/08/22 23:50:23;;;;;;;27.57;22.10;;;17.00;99.90;;;;;;4977046;28;20453;-80